AirNav   Pilot Hours Calculator
 
 1265 users online  

KEGQ Emmetsburg Municipal Airport
Emmetsburg, Iowa, USA

GOING TO EMMETSBURG?


FAA INFORMATION EFFECTIVE 09 SEPTEMBER 2021

Location

FAA Identifier: EGQ
Lat/Long: 43-06-07.4000N 094-42-16.3000W
43-06.123333N 094-42.271667W
43.1020556,-94.7045278
(estimated)
Elevation: 1206.1 ft. / 367.6 m (surveyed)
Variation: 04E (2000)
From city: 1 mile SW of EMMETSBURG, IA
Time zone: UTC -5 (UTC -6 during Standard Time)
Zip code: 50536

Airport Operations

Airport use: Open to the public
Activation date: 03/1945
Control tower: no
ARTCC: MINNEAPOLIS CENTER
FSS: FORT DODGE FLIGHT SERVICE STATION
NOTAMs facility: FOD (NOTAM-D service available)
Attendance: IRREGULAR
Wind indicator: lighted
Segmented circle: no
Lights: ACTVT MIRL RY 13/31, REIL & PAPI RYS 13 & 31 - CTAF.
Beacon: white-green (lighted land airport)
Operates sunset to sunrise.

Airport Communications

CTAF/UNICOM: 122.8
WX ASOS at EST (18 nm N): 121.425 (712-362-7250)
WX AWOS-3 at AXA (19 nm E): 118.475 (515-295-9634)
  • APCH/DEP SVC PRVDD BY MINNEAPOLIS ARTCC ON FREQS 127.75/257.7 (FAIRMONT RCAG).

Nearby radio navigation aids

VOR radial/distance  VOR name  Freq  Var
SPWr094/22.0SPENCER VOR/DME110.0005E
FODr322/34.5FORT DODGE VORTAC113.5007E

 
NDB name  Hdg/Dist  Freq  Var  ID
EMMETSBURGat field41004EEGQ . --. --.-
PUFF173/15.034501EPUF .--. ..- ..-.

Airport Services

Fuel available: 100LL
Parking: hangars and tiedowns
Airframe service: NONE
Powerplant service: NONE
Bottled oxygen: NONE
Bulk oxygen: NONE

Runway Information

Runway 13/31

Dimensions: 3401 x 60 ft. / 1037 x 18 m
Surface: concrete, in good condition
Weight bearing capacity: 
Single wheel: 29.0
Runway edge lights: medium intensity
RUNWAY 13  RUNWAY 31
Latitude: 43-06.427827N43-06.021400N
Longitude: 094-42.701945W094-42.176483W
Elevation: 1205.6 ft.1205.1 ft.
Traffic pattern: leftleft
Runway heading: 133 magnetic, 137 true313 magnetic, 317 true
Markings: nonprecision, in good conditionnonprecision, in good condition
Visual slope indicator: 4-light PAPI on left (4.00 degrees glide path)4-light PAPI on left (3.00 degrees glide path)
Runway end identifier lights: yesyes
Touchdown point: yes, no lightsyes, no lights
Obstructions: 27 ft. trees, 317 ft. from runway, 136 ft. right of centerline, 4:1 slope to clear72 ft. tree, 1384 ft. from runway, 266 ft. left of centerline, 16:1 slope to clear

Runway 4/22

Dimensions: 2537 x 120 ft. / 773 x 37 m
Surface: turf, in fair condition
Runway edge markings: 04/22 THRS & SIDES MARKED WITH YELLOW CONES.
RUNWAY 4  RUNWAY 22
Latitude: 43-05.884752N43-06.181132N
Longitude: 094-42.396565W094-41.994978W
Elevation: 1201.6 ft.1204.9 ft.
Traffic pattern: leftleft
Runway heading: 041 magnetic, 045 true221 magnetic, 225 true
Touchdown point: yes, no lightsyes, no lights
Obstructions: 11 ft. road, 230 ft. from runway, 20:1 slope to clear17 ft. road, 340 ft. from runway, 20:1 slope to clear

Runway 17/35

Dimensions: 2157 x 150 ft. / 657 x 46 m
Surface: turf, in fair condition
Runway edge markings: 17/35 THLDS & SIDES MARKED WITH YELLOW CONES.
RUNWAY 17  RUNWAY 35
Latitude: 43-06.248090N43-05.893000N
Longitude: 094-42.094718W094-42.098217W
Elevation: 1203.5 ft.1201.5 ft.
Traffic pattern: leftleft
Runway heading: 176 magnetic, 180 true356 magnetic, 000 true
Touchdown point: yes, no lightsyes, no lights
Obstructions: 15 ft. tree, 197 ft. from runway, 72 ft. left of centerline, 13:1 slope to clear41 ft. tree, 341 ft. from runway, 14 ft. left of centerline, 8:1 slope to clear

Airport Ownership and Management from official FAA records

Ownership: Publicly-owned
Owner: CITY OF EMMETSBURG
2021 MAIN
EMMETSBURG, IA 50536
Phone 712-852-4030
Manager: KIMBERLY KIBBIE
3775 450TH STREET
EMMETSBURG, IA 50536
Phone 712-852-4030

Airport Operational Statistics

Aircraft based on the field: 10
Single engine airplanes: 8
Multi engine airplanes: 2
    
Aircraft operations: avg 48/week *
90% local general aviation
10% transient general aviation
* for 12-month period ending 16 July 2020

Additional Remarks

FOR CD CTC MINNEAPOLIS ARTCC AT 651-463-5588.

Instrument Procedures

NOTE: All procedures below are presented as PDF files. If you need a reader for these files, you should download the free Adobe Reader.

NOT FOR NAVIGATION. Please procure official charts for flight.
FAA instrument procedures published for use from 09 September 2021 at 0901Z to 07 October 2021 at 0900Z.

 
IAPs - Instrument Approach Procedures
RNAV (GPS) RWY 13   download (213KB)
RNAV (GPS) RWY 31   download (210KB)
NDB RWY 13   download (202KB)
NDB RWY 31   download (188KB)
NOTE: Special Take-Off Minimums/Departure Procedures apply   download (158KB)

Other nearby airports with instrument procedures:

KEST - Estherville Municipal Airport (18 nm N)
KAXA - Algona Municipal Airport (19 nm E)
KPOH - Pocahontas Municipal Airport (22 nm S)
KSPW - Spencer Municipal Airport (22 nm W)
4D8 - Fuller Airport (24 nm NW)
 
Loc | Ops | Rwys | IFR | FBO | Links
Com | Nav | Svcs | Stats | Notes
Area around KEGQ (Emmetsburg Municipal Airport)
 
Road maps at: MapQuest Bing Google
 
Aerial photo
WARNING: Photo may not be current or correct
Aerial photo of KEGQ (Emmetsburg Municipal Airport)
Photo taken 23-Jun-2010

Do you have a better or more recent aerial photo of Emmetsburg Municipal Airport that you would like to share? If so, please send us your photo.

 
Sectional chart

 
Airport distance calculator
Flying to Emmetsburg Municipal Airport? Find the distance to fly.

From to KEGQ

Sunrise and sunset
Times for 28-Sep-2021
 Local
(UTC-5)
 Zulu
(UTC)
Morning civil twilight06:4511:45
Sunrise07:1412:14
Sunset19:0500:05
Evening civil twilight19:3300:33

Current date and time
Zulu (UTC)  28-Sep-2021 13:24:38
Local (UTC-5)  28-Sep-2021 08:24:38
 
METAR
KEST 
18nm N 
281252Z AUTO 12004KT 7SM CLR 11/10 A2993 RMK AO2 SLP136 T01060100
KAXA 
19nm E 
281255Z AUTO 13009KT 10SM CLR 15/14 A2993 RMK A01
KSPW 
23nm W 
281253Z AUTO 09006KT 10SM CLR 13/11 A2992 RMK AO2 SLP131 T01280111 $
KMJQ 
34nm N 
281255Z AUTO 15005KT 10SM CLR 13/11 A2994 RMK AO2 PWINO
KFRM 
34nm N 
281256Z AUTO 16004KT 10SM CLR 11/11 A2995 RMK AO2 SLP143 T01110106
TAF
KFOD 
42nm SE 
281123Z 2812/2912 11005KT P6SM FEW200 FM281500 13010G18KT P6SM SKC FM290000 14007KT P6SM SKC
NOTAMs
Click for the latest NOTAMs
NOTAMs are issued by the DoD/FAA and will open in a separate window not controlled by AirNav.

 

 
 

FBO, Fuel Providers, and Aircraft Ground Support

  
 Business Name 
 
 Contact 
 
 Services / Description 
 
Fuel Prices
 
Comments
  
Emmetsburg Municipal Airport 712-852-3810
no information available

If you are affiliated with Emmetsburg Municipal Airport and would like to show here your services, contact info, web link, logo, and more, click here
100LL
SS $4.44 
 Updated 01-Aug-2019
 
   1 read write
SS=Self service
Update Fuel Prices
 

Would you like to see your business listed on this page?

 If your business provides an interesting product or service to pilots, flight crews, aircraft, or users of the Emmetsburg Municipal Airport, you should consider listing it here.  To start the listing process, click on the button below
 
Add a business
 

Other Pages about Emmetsburg Municipal Airport

Page from the Iowa Airport Directory
 
Update a link
 
Copyright © AirNav, LLC. All rights reserved. Privacy Policy  Contact